sensor_id;sensor_type;location;lat;lon;timestamp;temperature;humidity
75430;DHT22;64127;51.488;5.462;2023-07-31T00:02:18;17.60;99.90
75430;DHT22;64127;51.488;5.462;2023-07-31T00:04:50;17.60;99.90
75430;DHT22;64127;51.488;5.462;2023-07-31T00:07:22;17.70;99.90
75430;DHT22;64127;51.488;5.462;2023-07-31T00:09:54;17.60;99.90
75430;DHT22;64127;51.488;5.462;2023-07-31T00:12:28;17.60;99.90
75430;DHT22;64127;51.488;5.462;2023-07-31T00:15:00;17.60;99.90
75430;DHT22;64127;51.488;5.462;2023-07-31T00:17:32;17.60;99.90
75430;DHT22;64127;51.488;5.462;2023-07-31T00:20:05;17.60;99.90
75430;DHT22;64127;51.488;5.462;2023-07-31T00:22:37;17.60;99.90
75430;DHT22;64127;51.488;5.462;2023-07-31T00:25:09;17.60;99.90
75430;DHT22;64127;51.488;5.462;2023-07-31T00:27:41;17.60;99.90
75430;DHT22;64127;51.488;5.462;2023-07-31T00:30:16;17.60;99.90
75430;DHT22;64127;51.488;5.462;2023-07-31T00:32:48;17.50;99.90
75430;DHT22;64127;51.488;5.462;2023-07-31T00:35:20;17.50;99.90
75430;DHT22;64127;51.488;5.462;2023-07-31T00:37:52;17.60;99.90
75430;DHT22;64127;51.488;5.462;2023-07-31T00:40:24;17.50;99.90
75430;DHT22;64127;51.488;5.462;2023-07-31T00:42:56;17.60;99.90
75430;DHT22;64127;51.488;5.462;2023-07-31T00:45:30;17.60;99.90
75430;DHT22;64127;51.488;5.462;2023-07-31T00:48:04;17.60;99.90
75430;DHT22;64127;51.488;5.462;2023-07-31T00:50:39;17.60;99.90
75430;DHT22;64127;51.488;5.462;2023-07-31T00:53:11;17.60;99.90
75430;DHT22;64127;51.488;5.462;2023-07-31T00:55:43;17.60;99.90
75430;DHT22;64127;51.488;5.462;2023-07-31T00:58:16;17.60;99.90
75430;DHT22;64127;51.488;5.462;2023-07-31T01:00:48;17.60;99.90
75430;DHT22;64127;51.488;5.462;2023-07-31T01:03:22;17.60;99.90
75430;DHT22;64127;51.488;5.462;2023-07-31T01:06:17;17.60;99.90
75430;DHT22;64127;51.488;5.462;2023-07-31T01:12:13;17.60;99.90
75430;DHT22;64127;51.488;5.462;2023-07-31T01:15:03;17.60;99.90
75430;DHT22;64127;51.488;5.462;2023-07-31T01:17:35;17.60;99.90
75430;DHT22;64127;51.488;5.462;2023-07-31T01:20:11;17.50;99.90
75430;DHT22;64127;51.488;5.462;2023-07-31T01:23:10;17.60;99.90
75430;DHT22;64127;51.488;5.462;2023-07-31T01:26:11;17.60;99.90
75430;DHT22;64127;51.488;5.462;2023-07-31T01:29:12;17.60;99.90
75430;DHT22;64127;51.488;5.462;2023-07-31T01:31:48;17.50;99.90
75430;DHT22;64127;51.488;5.462;2023-07-31T01:34:22;17.50;99.90
75430;DHT22;64127;51.488;5.462;2023-07-31T01:36:56;17.60;99.90
75430;DHT22;64127;51.488;5.462;2023-07-31T01:39:29;17.50;99.90
75430;DHT22;64127;51.488;5.462;2023-07-31T01:42:01;17.50;99.90
75430;DHT22;64127;51.488;5.462;2023-07-31T01:44:33;17.50;99.90
75430;DHT22;64127;51.488;5.462;2023-07-31T01:47:05;17.50;99.90
75430;DHT22;64127;51.488;5.462;2023-07-31T01:49:38;17.50;99.90
75430;DHT22;64127;51.488;5.462;2023-07-31T01:52:09;17.50;99.90
75430;DHT22;64127;51.488;5.462;2023-07-31T01:54:41;17.50;99.90
75430;DHT22;64127;51.488;5.462;2023-07-31T01:57:14;17.50;99.90
75430;DHT22;64127;51.488;5.462;2023-07-31T01:59:46;17.50;99.90
75430;DHT22;64127;51.488;5.462;2023-07-31T02:02:17;17.50;99.90
75430;DHT22;64127;51.488;5.462;2023-07-31T02:04:50;17.50;99.90
75430;DHT22;64127;51.488;5.462;2023-07-31T02:07:21;17.50;99.90
75430;DHT22;64127;51.488;5.462;2023-07-31T02:09:54;17.40;99.90
75430;DHT22;64127;51.488;5.462;2023-07-31T02:12:26;17.40;99.90
75430;DHT22;64127;51.488;5.462;2023-07-31T02:14:58;17.40;99.90
75430;DHT22;64127;51.488;5.462;2023-07-31T02:17:30;17.40;99.90
75430;DHT22;64127;51.488;5.462;2023-07-31T02:20:02;17.40;99.90
75430;DHT22;64127;51.488;5.462;2023-07-31T02:22:34;17.40;99.90
75430;DHT22;64127;51.488;5.462;2023-07-31T02:25:06;17.40;99.90
75430;DHT22;64127;51.488;5.462;2023-07-31T02:27:39;17.40;99.90
75430;DHT22;64127;51.488;5.462;2023-07-31T02:30:11;17.30;99.90
75430;DHT22;64127;51.488;5.462;2023-07-31T02:32:43;17.40;99.90
75430;DHT22;64127;51.488;5.462;2023-07-31T02:35:15;17.30;99.90
75430;DHT22;64127;51.488;5.462;2023-07-31T02:37:47;17.30;99.90
75430;DHT22;64127;51.488;5.462;2023-07-31T02:40:20;17.30;99.90
75430;DHT22;64127;51.488;5.462;2023-07-31T02:42:52;17.30;99.90
75430;DHT22;64127;51.488;5.462;2023-07-31T02:45:24;17.30;99.90
75430;DHT22;64127;51.488;5.462;2023-07-31T02:47:56;17.30;99.90
75430;DHT22;64127;51.488;5.462;2023-07-31T02:50:28;17.30;99.90
75430;DHT22;64127;51.488;5.462;2023-07-31T02:53:00;17.30;99.90
75430;DHT22;64127;51.488;5.462;2023-07-31T02:55:32;17.30;99.90
75430;DHT22;64127;51.488;5.462;2023-07-31T02:58:04;17.30;99.90
75430;DHT22;64127;51.488;5.462;2023-07-31T03:00:42;17.30;99.90
75430;DHT22;64127;51.488;5.462;2023-07-31T03:03:15;17.30;99.90
75430;DHT22;64127;51.488;5.462;2023-07-31T03:05:47;17.30;99.90
75430;DHT22;64127;51.488;5.462;2023-07-31T03:08:19;17.30;99.90
75430;DHT22;64127;51.488;5.462;2023-07-31T03:10:51;17.30;99.90
75430;DHT22;64127;51.488;5.462;2023-07-31T03:13:23;17.30;99.90
75430;DHT22;64127;51.488;5.462;2023-07-31T03:15:55;17.30;99.90
75430;DHT22;64127;51.488;5.462;2023-07-31T03:18:28;17.30;99.90
75430;DHT22;64127;51.488;5.462;2023-07-31T03:21:00;17.30;99.90
75430;DHT22;64127;51.488;5.462;2023-07-31T03:23:32;17.30;99.90
75430;DHT22;64127;51.488;5.462;2023-07-31T03:26:06;17.30;99.90
75430;DHT22;64127;51.488;5.462;2023-07-31T03:28:39;17.30;99.90
75430;DHT22;64127;51.488;5.462;2023-07-31T03:31:11;17.30;99.90
75430;DHT22;64127;51.488;5.462;2023-07-31T03:33:44;17.30;99.90
75430;DHT22;64127;51.488;5.462;2023-07-31T03:36:16;17.30;99.90
75430;DHT22;64127;51.488;5.462;2023-07-31T03:38:48;17.30;99.90
75430;DHT22;64127;51.488;5.462;2023-07-31T03:41:20;17.30;99.90
75430;DHT22;64127;51.488;5.462;2023-07-31T03:43:52;17.30;99.90
75430;DHT22;64127;51.488;5.462;2023-07-31T03:46:24;17.40;99.90
75430;DHT22;64127;51.488;5.462;2023-07-31T03:48:57;17.40;99.90
75430;DHT22;64127;51.488;5.462;2023-07-31T03:51:29;17.40;99.90
75430;DHT22;64127;51.488;5.462;2023-07-31T03:54:01;17.40;99.90
75430;DHT22;64127;51.488;5.462;2023-07-31T03:56:33;17.40;99.90
75430;DHT22;64127;51.488;5.462;2023-07-31T03:59:07;17.50;99.90
75430;DHT22;64127;51.488;5.462;2023-07-31T04:01:39;17.50;99.90
75430;DHT22;64127;51.488;5.462;2023-07-31T04:04:11;17.50;99.90
75430;DHT22;64127;51.488;5.462;2023-07-31T04:06:43;17.50;99.90
75430;DHT22;64127;51.488;5.462;2023-07-31T04:09:15;17.50;99.90
75430;DHT22;64127;51.488;5.462;2023-07-31T04:11:47;17.50;99.90
75430;DHT22;64127;51.488;5.462;2023-07-31T04:14:19;17.50;99.90
75430;DHT22;64127;51.488;5.462;2023-07-31T04:16:51;17.50;99.90
75430;DHT22;64127;51.488;5.462;2023-07-31T04:19:24;17.50;99.90
75430;DHT22;64127;51.488;5.462;2023-07-31T04:21:56;17.60;99.90
75430;DHT22;64127;51.488;5.462;2023-07-31T04:24:28;17.60;99.90
75430;DHT22;64127;51.488;5.462;2023-07-31T04:27:00;17.60;99.90
75430;DHT22;64127;51.488;5.462;2023-07-31T04:29:32;17.60;99.90
75430;DHT22;64127;51.488;5.462;2023-07-31T04:32:04;17.60;99.90
75430;DHT22;64127;51.488;5.462;2023-07-31T04:34:36;17.60;99.90
75430;DHT22;64127;51.488;5.462;2023-07-31T04:37:09;17.60;99.90
75430;DHT22;64127;51.488;5.462;2023-07-31T04:39:41;17.60;99.90
75430;DHT22;64127;51.488;5.462;2023-07-31T04:42:13;17.70;99.90
75430;DHT22;64127;51.488;5.462;2023-07-31T04:44:45;17.70;99.90
75430;DHT22;64127;51.488;5.462;2023-07-31T04:47:17;17.70;99.90
75430;DHT22;64127;51.488;5.462;2023-07-31T04:49:49;17.70;99.90
75430;DHT22;64127;51.488;5.462;2023-07-31T04:52:21;17.70;99.90
75430;DHT22;64127;51.488;5.462;2023-07-31T04:54:53;17.70;99.90
75430;DHT22;64127;51.488;5.462;2023-07-31T04:57:25;17.70;99.90
75430;DHT22;64127;51.488;5.462;2023-07-31T04:59:57;17.70;99.90
75430;DHT22;64127;51.488;5.462;2023-07-31T05:02:29;17.70;99.90
75430;DHT22;64127;51.488;5.462;2023-07-31T05:05:01;17.80;99.90
75430;DHT22;64127;51.488;5.462;2023-07-31T05:07:33;17.70;99.90
75430;DHT22;64127;51.488;5.462;2023-07-31T05:10:05;17.70;99.90
75430;DHT22;64127;51.488;5.462;2023-07-31T05:12:38;17.80;99.90
75430;DHT22;64127;51.488;5.462;2023-07-31T05:15:10;17.80;99.90
75430;DHT22;64127;51.488;5.462;2023-07-31T05:17:42;17.80;99.90
75430;DHT22;64127;51.488;5.462;2023-07-31T05:20:14;17.80;99.90
75430;DHT22;64127;51.488;5.462;2023-07-31T05:22:46;17.70;99.90
75430;DHT22;64127;51.488;5.462;2023-07-31T05:25:18;17.70;99.90
75430;DHT22;64127;51.488;5.462;2023-07-31T05:27:51;17.70;99.90
75430;DHT22;64127;51.488;5.462;2023-07-31T05:30:22;17.70;99.90
75430;DHT22;64127;51.488;5.462;2023-07-31T05:32:54;17.70;99.90
75430;DHT22;64127;51.488;5.462;2023-07-31T05:35:27;17.70;99.90
75430;DHT22;64127;51.488;5.462;2023-07-31T05:37:59;17.60;99.90
75430;DHT22;64127;51.488;5.462;2023-07-31T05:40:33;17.60;99.90
75430;DHT22;64127;51.488;5.462;2023-07-31T05:43:05;17.60;99.90
75430;DHT22;64127;51.488;5.462;2023-07-31T05:45:39;17.60;99.90
75430;DHT22;64127;51.488;5.462;2023-07-31T05:48:12;17.60;99.90
75430;DHT22;64127;51.488;5.462;2023-07-31T05:50:44;17.50;99.90
75430;DHT22;64127;51.488;5.462;2023-07-31T05:53:16;17.50;99.90
75430;DHT22;64127;51.488;5.462;2023-07-31T05:55:48;17.50;99.90
75430;DHT22;64127;51.488;5.462;2023-07-31T05:58:20;17.50;99.90
75430;DHT22;64127;51.488;5.462;2023-07-31T06:00:52;17.50;99.90
75430;DHT22;64127;51.488;5.462;2023-07-31T06:03:24;17.40;99.90
75430;DHT22;64127;51.488;5.462;2023-07-31T06:05:56;17.50;99.90
75430;DHT22;64127;51.488;5.462;2023-07-31T06:08:28;17.50;99.90
75430;DHT22;64127;51.488;5.462;2023-07-31T06:11:00;17.50;99.90
75430;DHT22;64127;51.488;5.462;2023-07-31T06:13:32;17.50;99.90
75430;DHT22;64127;51.488;5.462;2023-07-31T06:16:04;17.50;99.90
75430;DHT22;64127;51.488;5.462;2023-07-31T06:18:37;17.50;99.90
75430;DHT22;64127;51.488;5.462;2023-07-31T06:21:10;17.50;99.90
75430;DHT22;64127;51.488;5.462;2023-07-31T06:23:42;17.50;99.90
75430;DHT22;64127;51.488;5.462;2023-07-31T06:26:14;17.40;99.90
75430;DHT22;64127;51.488;5.462;2023-07-31T06:28:46;17.40;99.90
75430;DHT22;64127;51.488;5.462;2023-07-31T06:31:18;17.50;99.90
75430;DHT22;64127;51.488;5.462;2023-07-31T06:33:54;17.40;99.90
75430;DHT22;64127;51.488;5.462;2023-07-31T06:36:26;17.40;99.90
75430;DHT22;64127;51.488;5.462;2023-07-31T06:38:58;17.50;99.90
75430;DHT22;64127;51.488;5.462;2023-07-31T06:41:30;17.50;99.90
75430;DHT22;64127;51.488;5.462;2023-07-31T06:44:02;17.50;99.90
75430;DHT22;64127;51.488;5.462;2023-07-31T06:46:34;17.50;99.90
75430;DHT22;64127;51.488;5.462;2023-07-31T06:49:06;17.60;99.90
75430;DHT22;64127;51.488;5.462;2023-07-31T06:51:38;17.60;99.90
75430;DHT22;64127;51.488;5.462;2023-07-31T06:54:10;17.60;99.90
75430;DHT22;64127;51.488;5.462;2023-07-31T06:56:43;17.60;99.90
75430;DHT22;64127;51.488;5.462;2023-07-31T06:59:15;17.60;99.90
75430;DHT22;64127;51.488;5.462;2023-07-31T07:01:47;17.50;99.90
75430;DHT22;64127;51.488;5.462;2023-07-31T07:04:19;17.50;99.90
75430;DHT22;64127;51.488;5.462;2023-07-31T07:06:51;17.50;99.90
75430;DHT22;64127;51.488;5.462;2023-07-31T07:09:23;17.50;99.90
75430;DHT22;64127;51.488;5.462;2023-07-31T07:11:55;17.50;99.90
75430;DHT22;64127;51.488;5.462;2023-07-31T07:14:27;17.60;99.90
75430;DHT22;64127;51.488;5.462;2023-07-31T07:16:59;17.60;99.90
75430;DHT22;64127;51.488;5.462;2023-07-31T07:19:31;17.60;99.90
75430;DHT22;64127;51.488;5.462;2023-07-31T07:22:03;17.60;99.90
75430;DHT22;64127;51.488;5.462;2023-07-31T07:24:36;17.60;99.90
75430;DHT22;64127;51.488;5.462;2023-07-31T07:27:08;17.60;99.90
75430;DHT22;64127;51.488;5.462;2023-07-31T07:29:40;17.60;99.90
75430;DHT22;64127;51.488;5.462;2023-07-31T07:32:13;17.60;99.90
75430;DHT22;64127;51.488;5.462;2023-07-31T07:34:45;17.60;99.90
75430;DHT22;64127;51.488;5.462;2023-07-31T07:37:19;17.60;99.90
75430;DHT22;64127;51.488;5.462;2023-07-31T07:39:51;17.60;99.90
75430;DHT22;64127;51.488;5.462;2023-07-31T07:42:23;17.60;99.90
75430;DHT22;64127;51.488;5.462;2023-07-31T07:44:55;17.60;99.90
75430;DHT22;64127;51.488;5.462;2023-07-31T07:47:27;17.60;99.90
75430;DHT22;64127;51.488;5.462;2023-07-31T07:50:00;17.60;99.90
75430;DHT22;64127;51.488;5.462;2023-07-31T07:52:32;17.60;99.90
75430;DHT22;64127;51.488;5.462;2023-07-31T07:55:04;17.60;99.90
75430;DHT22;64127;51.488;5.462;2023-07-31T07:57:37;17.60;99.90
75430;DHT22;64127;51.488;5.462;2023-07-31T08:00:09;17.60;99.90
75430;DHT22;64127;51.488;5.462;2023-07-31T08:02:42;17.60;99.90
75430;DHT22;64127;51.488;5.462;2023-07-31T08:05:14;17.60;99.90
75430;DHT22;64127;51.488;5.462;2023-07-31T08:07:46;17.60;99.90
75430;DHT22;64127;51.488;5.462;2023-07-31T08:10:18;17.60;99.90
75430;DHT22;64127;51.488;5.462;2023-07-31T08:12:51;17.60;99.90
75430;DHT22;64127;51.488;5.462;2023-07-31T08:15:23;17.60;99.90
75430;DHT22;64127;51.488;5.462;2023-07-31T08:17:55;17.60;99.90
75430;DHT22;64127;51.488;5.462;2023-07-31T08:20:27;17.60;99.90
75430;DHT22;64127;51.488;5.462;2023-07-31T08:22:59;17.60;99.90
75430;DHT22;64127;51.488;5.462;2023-07-31T08:25:38;17.60;99.90
75430;DHT22;64127;51.488;5.462;2023-07-31T08:28:10;17.60;99.90
75430;DHT22;64127;51.488;5.462;2023-07-31T08:30:42;17.60;99.90
75430;DHT22;64127;51.488;5.462;2023-07-31T08:33:15;17.60;99.90
75430;DHT22;64127;51.488;5.462;2023-07-31T08:35:47;17.60;99.90
75430;DHT22;64127;51.488;5.462;2023-07-31T08:38:20;17.60;99.90
75430;DHT22;64127;51.488;5.462;2023-07-31T08:40:52;17.60;99.90
75430;DHT22;64127;51.488;5.462;2023-07-31T08:43:26;17.60;99.90
75430;DHT22;64127;51.488;5.462;2023-07-31T08:45:59;17.60;99.90
75430;DHT22;64127;51.488;5.462;2023-07-31T08:48:32;17.70;99.90
75430;DHT22;64127;51.488;5.462;2023-07-31T08:51:05;17.70;99.90
75430;DHT22;64127;51.488;5.462;2023-07-31T08:53:37;17.70;99.90
75430;DHT22;64127;51.488;5.462;2023-07-31T08:56:11;17.70;99.90
75430;DHT22;64127;51.488;5.462;2023-07-31T08:58:47;17.70;99.90
75430;DHT22;64127;51.488;5.462;2023-07-31T09:01:21;17.70;99.90
75430;DHT22;64127;51.488;5.462;2023-07-31T09:03:54;17.70;99.90
75430;DHT22;64127;51.488;5.462;2023-07-31T09:06:28;17.70;99.90
75430;DHT22;64127;51.488;5.462;2023-07-31T09:09:02;17.80;99.90
75430;DHT22;64127;51.488;5.462;2023-07-31T09:11:34;17.80;99.90
75430;DHT22;64127;51.488;5.462;2023-07-31T09:14:08;17.80;99.90
75430;DHT22;64127;51.488;5.462;2023-07-31T09:16:55;17.90;99.90
75430;DHT22;64127;51.488;5.462;2023-07-31T09:19:33;17.90;99.90
75430;DHT22;64127;51.488;5.462;2023-07-31T09:22:08;17.90;99.90
75430;DHT22;64127;51.488;5.462;2023-07-31T09:24:40;17.90;99.90
75430;DHT22;64127;51.488;5.462;2023-07-31T09:27:12;17.90;99.90
75430;DHT22;64127;51.488;5.462;2023-07-31T09:29:44;18.00;99.90
75430;DHT22;64127;51.488;5.462;2023-07-31T09:32:17;18.00;99.90
75430;DHT22;64127;51.488;5.462;2023-07-31T09:34:49;18.00;99.90
75430;DHT22;64127;51.488;5.462;2023-07-31T09:37:21;18.00;99.90
75430;DHT22;64127;51.488;5.462;2023-07-31T09:39:53;18.10;99.90
75430;DHT22;64127;51.488;5.462;2023-07-31T09:42:30;18.10;99.90
75430;DHT22;64127;51.488;5.462;2023-07-31T09:45:08;18.10;99.90
75430;DHT22;64127;51.488;5.462;2023-07-31T09:47:46;18.20;99.90
75430;DHT22;64127;51.488;5.462;2023-07-31T09:50:21;18.20;99.90
75430;DHT22;64127;51.488;5.462;2023-07-31T09:52:55;18.20;99.90
75430;DHT22;64127;51.488;5.462;2023-07-31T09:55:27;18.30;99.90
75430;DHT22;64127;51.488;5.462;2023-07-31T09:58:06;18.30;99.90
75430;DHT22;64127;51.488;5.462;2023-07-31T10:00:40;18.30;99.90
75430;DHT22;64127;51.488;5.462;2023-07-31T10:03:12;18.30;99.90
75430;DHT22;64127;51.488;5.462;2023-07-31T10:05:50;18.30;99.90
75430;DHT22;64127;51.488;5.462;2023-07-31T10:08:28;18.40;99.90
75430;DHT22;64127;51.488;5.462;2023-07-31T10:11:02;18.40;99.90
75430;DHT22;64127;51.488;5.462;2023-07-31T10:13:36;18.40;99.90
75430;DHT22;64127;51.488;5.462;2023-07-31T10:16:08;18.50;99.90
75430;DHT22;64127;51.488;5.462;2023-07-31T10:18:42;18.50;99.90
75430;DHT22;64127;51.488;5.462;2023-07-31T10:21:15;18.50;99.90
75430;DHT22;64127;51.488;5.462;2023-07-31T10:23:49;18.60;99.90
75430;DHT22;64127;51.488;5.462;2023-07-31T10:26:23;18.60;99.90
75430;DHT22;64127;51.488;5.462;2023-07-31T10:28:58;18.70;99.90
75430;DHT22;64127;51.488;5.462;2023-07-31T10:31:30;18.70;99.90
75430;DHT22;64127;51.488;5.462;2023-07-31T10:34:03;18.70;99.90
75430;DHT22;64127;51.488;5.462;2023-07-31T10:36:36;18.70;99.90
75430;DHT22;64127;51.488;5.462;2023-07-31T10:39:34;18.70;99.90
75430;DHT22;64127;51.488;5.462;2023-07-31T10:42:13;18.70;99.90
75430;DHT22;64127;51.488;5.462;2023-07-31T10:44:46;18.70;99.90
75430;DHT22;64127;51.488;5.462;2023-07-31T10:47:19;18.70;99.90
75430;DHT22;64127;51.488;5.462;2023-07-31T10:49:51;18.80;99.90
75430;DHT22;64127;51.488;5.462;2023-07-31T10:52:23;18.80;99.90
75430;DHT22;64127;51.488;5.462;2023-07-31T10:58:06;18.80;99.90
75430;DHT22;64127;51.488;5.462;2023-07-31T11:00:43;18.80;99.90
75430;DHT22;64127;51.488;5.462;2023-07-31T11:03:17;18.90;99.90
75430;DHT22;64127;51.488;5.462;2023-07-31T11:06:01;18.90;99.90
75430;DHT22;64127;51.488;5.462;2023-07-31T11:08:43;18.90;99.90
75430;DHT22;64127;51.488;5.462;2023-07-31T11:11:18;19.00;99.90
75430;DHT22;64127;51.488;5.462;2023-07-31T11:13:53;19.10;99.90
75430;DHT22;64127;51.488;5.462;2023-07-31T11:16:25;19.20;99.90
75430;DHT22;64127;51.488;5.462;2023-07-31T11:18:57;19.30;99.90
75430;DHT22;64127;51.488;5.462;2023-07-31T11:21:29;19.30;99.90
75430;DHT22;64127;51.488;5.462;2023-07-31T11:24:02;19.30;99.90
75430;DHT22;64127;51.488;5.462;2023-07-31T11:26:34;19.40;99.90
75430;DHT22;64127;51.488;5.462;2023-07-31T11:29:11;19.40;99.90
75430;DHT22;64127;51.488;5.462;2023-07-31T11:31:45;19.40;99.90
75430;DHT22;64127;51.488;5.462;2023-07-31T11:34:18;19.40;99.90
75430;DHT22;64127;51.488;5.462;2023-07-31T11:36:54;19.40;99.90
75430;DHT22;64127;51.488;5.462;2023-07-31T11:39:29;19.50;99.90
75430;DHT22;64127;51.488;5.462;2023-07-31T11:42:02;19.60;99.90
75430;DHT22;64127;51.488;5.462;2023-07-31T11:44:39;19.70;99.90
75430;DHT22;64127;51.488;5.462;2023-07-31T11:47:12;19.70;99.90
75430;DHT22;64127;51.488;5.462;2023-07-31T11:49:44;19.70;99.90
75430;DHT22;64127;51.488;5.462;2023-07-31T11:52:18;19.70;99.90
75430;DHT22;64127;51.488;5.462;2023-07-31T11:54:51;19.70;99.90
75430;DHT22;64127;51.488;5.462;2023-07-31T11:57:24;19.60;99.90
75430;DHT22;64127;51.488;5.462;2023-07-31T11:59:57;19.60;99.90
75430;DHT22;64127;51.488;5.462;2023-07-31T12:02:29;19.60;99.90
75430;DHT22;64127;51.488;5.462;2023-07-31T12:05:02;19.50;99.90
75430;DHT22;64127;51.488;5.462;2023-07-31T12:07:51;19.50;99.90
75430;DHT22;64127;51.488;5.462;2023-07-31T12:10:31;19.50;99.90
75430;DHT22;64127;51.488;5.462;2023-07-31T12:13:12;19.40;99.90
75430;DHT22;64127;51.488;5.462;2023-07-31T12:15:59;19.40;99.90
75430;DHT22;64127;51.488;5.462;2023-07-31T12:18:36;19.40;99.90
75430;DHT22;64127;51.488;5.462;2023-07-31T12:21:09;19.30;99.90
75430;DHT22;64127;51.488;5.462;2023-07-31T12:23:44;19.30;99.90
75430;DHT22;64127;51.488;5.462;2023-07-31T12:26:16;19.30;99.90
75430;DHT22;64127;51.488;5.462;2023-07-31T12:28:50;19.40;99.90
75430;DHT22;64127;51.488;5.462;2023-07-31T12:31:22;19.30;99.90
75430;DHT22;64127;51.488;5.462;2023-07-31T12:33:55;19.30;99.90
75430;DHT22;64127;51.488;5.462;2023-07-31T12:36:27;19.30;99.90
75430;DHT22;64127;51.488;5.462;2023-07-31T12:39:02;19.30;99.90
75430;DHT22;64127;51.488;5.462;2023-07-31T12:41:34;19.30;99.90
75430;DHT22;64127;51.488;5.462;2023-07-31T12:44:06;19.30;99.90
75430;DHT22;64127;51.488;5.462;2023-07-31T12:46:38;19.40;99.90
75430;DHT22;64127;51.488;5.462;2023-07-31T12:49:11;19.40;99.90
75430;DHT22;64127;51.488;5.462;2023-07-31T12:51:43;19.30;99.90
75430;DHT22;64127;51.488;5.462;2023-07-31T12:54:15;19.40;99.90
75430;DHT22;64127;51.488;5.462;2023-07-31T12:56:47;19.30;99.90
75430;DHT22;64127;51.488;5.462;2023-07-31T12:59:19;19.40;99.90
75430;DHT22;64127;51.488;5.462;2023-07-31T13:01:52;19.40;99.90
75430;DHT22;64127;51.488;5.462;2023-07-31T13:04:24;19.50;99.90
75430;DHT22;64127;51.488;5.462;2023-07-31T13:06:56;19.50;99.90
75430;DHT22;64127;51.488;5.462;2023-07-31T13:09:28;19.50;99.90
75430;DHT22;64127;51.488;5.462;2023-07-31T13:12:00;19.60;99.90
75430;DHT22;64127;51.488;5.462;2023-07-31T13:14:32;19.60;99.90
75430;DHT22;64127;51.488;5.462;2023-07-31T13:17:04;19.60;99.90
75430;DHT22;64127;51.488;5.462;2023-07-31T13:19:36;19.70;99.90
75430;DHT22;64127;51.488;5.462;2023-07-31T13:22:08;19.70;99.90
75430;DHT22;64127;51.488;5.462;2023-07-31T13:24:40;19.70;99.90
75430;DHT22;64127;51.488;5.462;2023-07-31T13:27:13;19.80;99.90
75430;DHT22;64127;51.488;5.462;2023-07-31T13:29:48;19.80;99.90
75430;DHT22;64127;51.488;5.462;2023-07-31T13:32:21;19.80;99.90
75430;DHT22;64127;51.488;5.462;2023-07-31T13:34:53;19.80;99.90
75430;DHT22;64127;51.488;5.462;2023-07-31T13:37:25;19.80;99.90
75430;DHT22;64127;51.488;5.462;2023-07-31T13:39:57;19.80;99.90
75430;DHT22;64127;51.488;5.462;2023-07-31T13:42:29;19.70;99.90
75430;DHT22;64127;51.488;5.462;2023-07-31T13:45:01;19.70;99.90
75430;DHT22;64127;51.488;5.462;2023-07-31T13:47:38;19.70;99.90
75430;DHT22;64127;51.488;5.462;2023-07-31T13:50:10;19.70;99.90
75430;DHT22;64127;51.488;5.462;2023-07-31T13:52:42;19.60;99.90
75430;DHT22;64127;51.488;5.462;2023-07-31T13:55:14;19.60;99.90
75430;DHT22;64127;51.488;5.462;2023-07-31T13:57:46;19.60;99.90
75430;DHT22;64127;51.488;5.462;2023-07-31T14:00:18;19.50;99.90
75430;DHT22;64127;51.488;5.462;2023-07-31T14:02:50;19.50;99.90
75430;DHT22;64127;51.488;5.462;2023-07-31T14:05:23;19.40;99.90
75430;DHT22;64127;51.488;5.462;2023-07-31T14:07:55;19.40;99.90
75430;DHT22;64127;51.488;5.462;2023-07-31T14:10:27;19.40;99.90
75430;DHT22;64127;51.488;5.462;2023-07-31T14:12:59;19.30;99.90
75430;DHT22;64127;51.488;5.462;2023-07-31T14:15:31;19.30;99.90
75430;DHT22;64127;51.488;5.462;2023-07-31T14:18:04;19.30;99.90
75430;DHT22;64127;51.488;5.462;2023-07-31T14:20:36;19.30;99.90
75430;DHT22;64127;51.488;5.462;2023-07-31T14:23:08;19.30;99.90
75430;DHT22;64127;51.488;5.462;2023-07-31T14:25:40;19.20;99.90
75430;DHT22;64127;51.488;5.462;2023-07-31T14:28:12;19.30;99.90
75430;DHT22;64127;51.488;5.462;2023-07-31T14:30:44;19.30;99.90
75430;DHT22;64127;51.488;5.462;2023-07-31T14:33:16;19.30;99.90
75430;DHT22;64127;51.488;5.462;2023-07-31T14:35:48;19.30;99.90
75430;DHT22;64127;51.488;5.462;2023-07-31T14:38:20;19.30;99.90
75430;DHT22;64127;51.488;5.462;2023-07-31T14:40:52;19.30;99.90
75430;DHT22;64127;51.488;5.462;2023-07-31T14:43:24;19.30;99.90
75430;DHT22;64127;51.488;5.462;2023-07-31T14:45:57;19.30;99.90
75430;DHT22;64127;51.488;5.462;2023-07-31T14:48:31;19.30;99.90
75430;DHT22;64127;51.488;5.462;2023-07-31T14:51:03;19.30;99.90
75430;DHT22;64127;51.488;5.462;2023-07-31T14:53:35;19.30;99.90
75430;DHT22;64127;51.488;5.462;2023-07-31T14:56:07;19.30;99.90
75430;DHT22;64127;51.488;5.462;2023-07-31T14:58:39;19.30;99.90
75430;DHT22;64127;51.488;5.462;2023-07-31T15:01:11;19.30;99.90
75430;DHT22;64127;51.488;5.462;2023-07-31T15:03:43;19.30;99.90
75430;DHT22;64127;51.488;5.462;2023-07-31T15:06:16;19.30;99.90
75430;DHT22;64127;51.488;5.462;2023-07-31T15:08:48;19.30;99.90
75430;DHT22;64127;51.488;5.462;2023-07-31T15:11:20;19.30;99.90
75430;DHT22;64127;51.488;5.462;2023-07-31T15:13:52;19.30;99.90
75430;DHT22;64127;51.488;5.462;2023-07-31T15:16:24;19.20;99.90
75430;DHT22;64127;51.488;5.462;2023-07-31T15:18:56;19.20;99.90
75430;DHT22;64127;51.488;5.462;2023-07-31T15:21:28;19.20;99.90
75430;DHT22;64127;51.488;5.462;2023-07-31T15:24:00;19.20;99.90
75430;DHT22;64127;51.488;5.462;2023-07-31T15:26:32;19.20;99.90
75430;DHT22;64127;51.488;5.462;2023-07-31T15:29:06;19.20;99.90
75430;DHT22;64127;51.488;5.462;2023-07-31T15:31:43;19.10;99.90
75430;DHT22;64127;51.488;5.462;2023-07-31T15:34:16;19.10;99.90
75430;DHT22;64127;51.488;5.462;2023-07-31T15:36:48;19.00;99.90
75430;DHT22;64127;51.488;5.462;2023-07-31T15:39:20;19.00;99.90
75430;DHT22;64127;51.488;5.462;2023-07-31T15:41:52;19.00;99.90
75430;DHT22;64127;51.488;5.462;2023-07-31T15:44:24;19.00;99.90
75430;DHT22;64127;51.488;5.462;2023-07-31T15:46:56;19.00;99.90
75430;DHT22;64127;51.488;5.462;2023-07-31T15:49:28;19.00;99.90
75430;DHT22;64127;51.488;5.462;2023-07-31T15:52:00;18.90;99.90
75430;DHT22;64127;51.488;5.462;2023-07-31T15:54:33;18.90;99.90
75430;DHT22;64127;51.488;5.462;2023-07-31T15:57:05;18.90;99.90
75430;DHT22;64127;51.488;5.462;2023-07-31T15:59:37;18.90;99.90
75430;DHT22;64127;51.488;5.462;2023-07-31T16:02:09;18.90;99.90
75430;DHT22;64127;51.488;5.462;2023-07-31T16:04:43;18.90;99.90
75430;DHT22;64127;51.488;5.462;2023-07-31T16:07:15;18.90;99.90
75430;DHT22;64127;51.488;5.462;2023-07-31T16:09:47;18.90;99.90
75430;DHT22;64127;51.488;5.462;2023-07-31T16:12:19;18.80;99.90
75430;DHT22;64127;51.488;5.462;2023-07-31T16:14:51;18.80;99.90